Terminal Aerodrome Forecast
Issued by NWS

Home | Current Version | Previous Version | Text Only | Print | Product List | Glossary On
Versions: 1 2 3 4 5 6 7 8 9 10 11 12 13 14 15 16 17 18 19 20 21 22 23 24 25 26 27 28 29 30 31 32 33 34 35 36 37 38
000
FTUS45 KGJT 192321
TAFEGE
TAF
KEGE 192321Z 2000/2024 14005KT P6SM VCSH SCT090
     FM200600 VRB03KT P6SM FEW150
     FM202000 24007KT P6SM VCSH SCT080
      AMD LTD TO CLD VIS AND WIND DD01/DD13=

USA.gov is the U.S. government's official web portal to all federal, state and local government web resources and services.